Date,TemperatureHighF,TemperatureAvgF,TemperatureLowF,DewpointHighF,DewpointAvgF,DewpointLowF,HumidityHigh,HumidityAvg,HumidityLow,PressureMaxIn,PressureMinIn,WindSpeedMaxMPH,WindSpeedAvgMPH,GustSpeedMaxMPH,PrecipitationSumIn
2012-1-1,51.5,41.4,30.1,45.0,37.5,29.6,99,87,63,30.06,29.61,11,1,12,0.02
2012-1-2,47.9,39.3,30.2,46.5,28.4,17.6,96,67,39,29.70,29.51,16,2,16,0.02
2012-1-3,30.1,22.3,10.9,19.6,7.7,-3.9,73,53,41,30.01,29.70,20,3,20,0.00
2012-1-4,25.4,17.1,7.2,7.1,0.8,-2.2,66,49,33,30.10,29.90,14,2,15,0.00
2012-1-5,36.2,28.7,23.4,25.2,15.6,7.1,73,58,49,29.91,29.73,14,2,14,0.00
2012-1-6,46.4,32.3,24.2,32.3,24.0,13.9,91,72,57,29.94,29.72,6,0,6,0.00
2012-1-7,58.3,40.3,25.7,35.2,30.2,24.1,95,70,41,29.87,29.63,11,1,11,0.00
2012-1-8,42.5,37.0,26.8,29.8,24.4,18.1,76,61,46,30.26,29.87,12,1,12,0.00
2012-1-9,39.6,29.0,19.8,20.4,15.8,12.3,84,59,34,30.29,29.97,8,0,8,0.00
2012-1-10,45.1,35.5,27.4,29.2,26.2,20.4,93,70,51,29.97,29.74,13,1,13,0.00
2012-1-11,37.1,30.1,22.9,30.8,23.1,19.5,93,76,49,30.13,29.94,9,0,9,0.00
2012-1-12,38.9,34.7,30.3,37.7,32.8,29.3,97,93,80,30.06,29.48,22,3,22,1.01
2012-1-13,48.1,33.8,28.9,45.3,27.8,17.0,99,80,55,29.57,29.15,21,3,21,0.00
2012-1-14,31.7,27.1,15.1,20.6,14.8,4.1,69,59,51,30.01,29.56,15,3,15,0.00
2012-1-15,15.1,9.1,3.0,4.4,-3.3,-6.9,70,57,43,30.50,30.00,19,4,19,0.00
2012-1-16,30.2,18.4,4.4,28.9,5.6,-3.3,95,59,34,30.58,30.11,11,1,11,0.00
2012-1-17,45.4,37.1,30.2,43.8,34.8,28.9,97,92,80,30.11,29.44,11,1,11,0.18
2012-1-18,49.7,33.9,18.0,45.0,18.2,-0.1,94,54,36,30.14,29.40,27,5,27,0.00
2012-1-19,30.8,21.3,9.4,27.2,12.2,0.4,92,68,46,30.30,29.96,14,2,14,0.00
2012-1-20,29.2,25.2,19.0,27.4,15.7,3.1,96,69,43,30.28,29.91,17,1,17,0.00
2012-1-21,19.2,17.1,12.6,16.4,10.3,1.1,90,76,49,30.36,30.13,12,2,12,0.00
2012-1-22,29.5,20.0,8.7,20.4,13.2,4.9,85,75,63,30.57,30.36,11,1,11,0.00
2012-1-23,36.1,35.4,35.1,35.3,34.2,33.1,97,95,90,30.06,29.85,0,0,0,0.25
2012-1-24,53.8,47.8,35.9,49.4,42.2,31.3,98,82,61,30.01,29.83,10,1,10,0.00
2012-1-27,42.4,39.5,36.9,41.9,38.0,32.5,98,94,81,29.59,29.25,12,2,12,1.27
2012-1-28,46.8,39.7,34.7,32.6,29.4,26.7,81,67,48,29.99,29.58,15,2,15,0.00
2012-1-29,41.7,36.2,31.3,30.8,17.9,12.6,74,48,31,30.06,29.85,16,2,16,0.00
2012-1-30,36.7,32.1,23.2,27.5,17.1,9.2,86,55,33,30.28,29.91,20,2,20,0.00
2012-1-31,42.2,33.4,23.4,31.9,25.9,17.3,95,75,56,30.29,30.01,5,0,7,0.00
2012-2-1,56.7,41.1,32.0,46.2,36.5,31.1,98,85,64,30.01,29.75,18,1,18,0.05
2012-2-2,41.2,35.1,29.5,32.2,28.6,21.8,83,77,66,30.19,29.94,15,2,15,0.00
2012-2-3,37.6,29.4,22.0,22.5,15.1,8.3,75,56,32,30.37,30.19,14,3,14,0.00
2012-2-4,39.7,32.9,24.9,26.3,18.7,9.3,80,57,37,30.24,30.10,19,2,19,0.00
2012-2-5,36.2,25.1,17.3,14.0,10.4,7.9,74,55,32,30.17,30.05,11,1,11,0.00
2012-2-6,50.7,36.3,21.6,24.7,20.7,13.7,72,55,34,30.07,29.82,13,2,16,0.00
2012-2-7,43.0,35.0,27.1,28.3,23.5,16.3,85,64,47,30.24,29.86,8,1,13,0.00
2012-2-8,36.6,28.0,14.6,16.4,10.3,6.6,81,49,30,30.31,30.05,6,1,10,0.00
2012-2-9,46.9,34.7,25.8,16.8,13.8,10.1,64,44,24,30.08,29.95,12,1,12,0.00
2012-2-10,49.7,37.1,23.0,32.0,20.2,14.6,75,53,28,30.10,29.86,13,1,13,0.00
2012-2-11,39.5,34.0,26.4,32.0,27.0,12.8,94,76,56,29.87,29.52,19,2,19,0.01
2012-2-12,26.4,18.8,13.2,13.1,0.5,-3.3,59,45,33,29.89,29.55,21,4,21,0.00
2012-2-13,40.3,27.6,12.6,20.2,13.4,-0.7,73,56,37,29.97,29.78,18,2,18,0.00
2012-2-14,43.5,31.6,20.9,21.4,16.4,11.3,83,57,28,30.10,29.97,7,0,7,0.00
2012-2-15,44.2,36.0,28.9,36.2,30.0,20.5,92,79,68,30.23,30.09,5,0,5,0.00
2012-2-16,45.7,37.2,26.2,36.2,31.6,25.0,96,82,57,30.27,30.03,8,0,8,0.06
2012-2-17,50.2,41.5,31.8,41.9,31.7,21.0,96,71,40,30.03,29.83,12,2,12,0.01
2012-2-18,43.4,34.2,29.4,24.8,22.2,19.1,76,62,38,29.95,29.85,14,2,14,0.00
2012-2-20,38.5,31.2,27.3,16.8,14.1,10.9,63,49,32,30.30,30.14,11,1,18,0.00
2012-2-21,43.4,32.5,18.7,34.3,20.7,14.8,90,64,35,30.33,29.85,10,1,10,0.00
2012-2-22,56.3,44.3,32.9,37.8,31.9,26.1,97,66,33,29.85,29.52,15,1,15,0.00
2012-2-23,51.2,43.6,35.2,44.0,34.5,23.8,93,72,44,29.78,29.34,18,2,18,0.04
2012-2-24,40.3,35.5,30.9,39.5,31.1,24.9,97,84,68,29.80,29.19,12,1,12,0.70
2012-2-25,43.2,37.2,30.6,36.1,23.7,17.1,97,60,36,29.78,29.19,32,5,32,0.01
2012-2-26,39.1,30.6,24.6,17.6,6.5,-2.4,59,38,20,30.43,29.78,21,4,21,0.00
2012-2-27,49.2,35.7,17.6,32.8,22.5,10.3,87,60,41,30.45,30.01,12,2,12,0.00
2012-2-28,44.4,38.6,29.6,32.3,20.6,13.4,74,49,32,30.38,30.01,19,3,19,0.00
2012-2-29,35.6,31.2,27.5,31.3,23.2,13.8,96,74,49,30.38,29.93,5,1,8,0.00
2012-3-1,33.7,28.9,21.5,32.7,27.9,19.8,97,96,92,30.02,29.76,19,4,19,0.53
2012-3-2,31.0,25.4,20.1,28.4,22.9,17.9,93,90,84,30.17,29.97,10,1,10,0.00
2012-3-3,43.2,36.8,30.9,41.0,35.5,28.4,98,95,79,29.97,29.35,10,1,10,0.08
2012-3-4,43.2,34.7,29.2,30.7,24.8,21.8,86,68,45,29.67,29.51,7,0,9,0.00
2012-3-5,36.1,29.3,21.6,21.9,12.9,6.9,70,51,33,30.31,29.62,19,3,19,0.00
2012-3-6,38.7,25.9,16.2,15.3,6.2,0.3,66,45,20,30.58,30.31,14,2,14,0.00
2012-3-7,61.9,44.8,26.1,37.2,29.2,11.6,80,56,33,30.57,30.21,13,2,13,0.00
2012-3-8,69.2,57.8,48.9,49.9,46.3,37.2,82,67,43,30.22,29.66,21,5,21,0.00
2012-3-9,60.9,41.5,32.3,51.2,26.1,15.7,86,56,32,30.13,29.65,20,3,20,0.06
2012-3-10,38.9,32.5,27.5,29.4,21.5,18.1,86,64,47,30.51,30.13,14,2,17,0.00
2012-3-11,53.9,39.1,27.1,29.3,23.4,20.0,83,56,31,30.51,30.23,15,2,15,0.00
2012-3-12,72.6,54.9,37.3,37.5,31.5,26.1,73,45,19,30.25,30.08,10,1,10,0.00
2012-3-13,72.7,60.1,48.8,55.5,48.1,35.6,94,66,43,30.09,29.83,12,1,12,0.05
2012-3-14,56.7,44.2,38.1,52.7,42.2,36.0,97,93,84,30.26,29.92,13,2,13,0.01
2012-3-15,43.4,38.0,35.0,36.2,33.6,31.4,93,85,70,30.37,30.25,8,1,8,0.00
2012-3-16,42.4,39.2,34.7,41.3,36.2,31.9,97,89,80,30.35,30.09,6,0,6,0.12
2012-3-17,52.1,43.5,37.2,44.2,40.2,35.9,98,89,69,30.36,30.15,6,0,6,0.01
2012-3-18,78.7,56.4,39.3,52.4,45.0,37.9,96,70,37,30.32,30.10,9,1,9,0.00
2012-3-19,77.5,58.5,45.0,52.6,47.3,42.1,93,70,34,30.26,30.09,17,2,17,0.00
2012-3-20,81.0,61.2,39.0,55.9,47.5,38.0,97,66,33,30.31,30.18,9,1,9,0.00
2012-3-21,79.8,66.8,54.6,59.6,56.6,53.5,97,72,46,30.32,30.19,10,1,10,0.00
2012-3-22,83.9,68.6,55.7,59.2,54.8,47.9,95,66,30,30.21,29.96,12,1,12,0.00
2012-3-23,74.4,66.3,58.8,55.0,40.0,21.7,79,42,21,30.10,29.95,16,2,16,0.00
2012-3-24,58.8,49.4,44.7,39.5,29.5,22.2,81,48,25,30.16,30.02,8,1,10,0.00
2012-3-25,47.1,44.1,41.6,41.8,38.9,34.9,94,82,63,30.03,29.70,8,1,8,0.07
2012-3-26,44.9,38.2,30.6,42.4,24.4,5.5,97,62,32,29.97,29.60,27,5,27,0.00
2012-3-27,46.6,34.4,24.9,9.5,-0.7,-7.8,40,24,10,30.17,29.96,23,5,23,0.00
2012-3-28,51.6,42.2,31.3,44.6,28.3,8.4,96,60,27,30.14,29.53,12,1,12,0.04
2012-3-29,45.7,41.8,38.3,44.4,34.4,27.4,96,76,54,29.90,29.52,20,3,20,0.02
2012-3-30,49.7,40.2,32.7,27.5,18.5,7.5,73,45,19,30.03,29.90,19,2,19,0.00
2012-3-31,44.4,38.9,29.1,32.4,29.6,23.3,93,69,50,30.04,29.88,8,1,11,0.00
2012-4-1,52.8,39.4,25.2,40.2,32.2,24.2,97,79,44,29.89,29.61,10,1,10,0.17
2012-4-2,52.2,43.0,37.0,39.7,27.1,11.2,96,61,21,29.80,29.57,23,4,23,0.06
2012-4-3,57.8,44.0,33.0,21.4,13.0,8.3,47,30,16,29.83,29.69,21,3,21,0.00
2012-4-4,61.1,49.1,34.4,38.0,23.8,15.3,74,40,19,29.73,29.44,20,3,21,0.00
2012-4-5,50.0,41.7,34.9,33.2,26.2,21.5,82,56,37,29.88,29.63,20,3,20,0.00
2012-4-6,51.9,41.7,30.2,24.1,21.0,16.9,71,46,26,29.97,29.85,16,2,16,0.00
2012-4-7,52.2,41.7,30.2,30.4,22.4,17.0,69,47,30,30.01,29.90,18,2,18,0.00
2012-4-8,49.5,43.7,37.4,33.2,27.4,21.5,74,54,38,29.98,29.58,15,2,15,0.00
2012-4-9,55.8,47.3,35.6,34.0,32.1,29.0,85,56,41,29.61,29.47,15,3,17,0.00
2012-4-10,60.4,50.1,39.3,33.0,28.5,24.9,61,45,27,29.74,29.58,13,2,13,0.00
2012-4-11,56.6,47.5,40.2,38.3,33.3,29.1,82,59,40,29.86,29.73,12,1,12,0.00
2012-4-12,54.2,43.8,38.2,44.2,38.8,35.4,97,83,52,30.07,29.84,10,1,20,0.41
2012-4-13,64.9,49.0,33.2,38.8,30.6,21.1,98,58,21,30.14,29.98,20,1,20,0.01
2012-4-14,71.0,57.6,39.9,32.6,26.8,17.8,63,34,15,30.13,29.94,11,1,11,0.00
2012-4-15,78.2,65.8,53.5,55.9,47.3,32.3,69,52,37,29.97,29.85,13,1,13,0.00
2012-4-16,92.6,74.8,59.3,60.0,56.7,50.0,94,58,25,29.98,29.84,12,1,14,0.00
2012-4-17,83.2,70.7,58.9,57.8,41.0,22.3,88,43,11,30.10,29.84,16,2,16,0.00
2012-4-18,62.5,52.9,47.2,39.9,32.4,23.7,73,47,27,30.23,30.10,13,2,13,0.00
2012-4-19,73.0,56.2,41.0,45.5,41.4,30.3,95,62,23,30.12,29.93,10,1,12,0.00
2012-4-20,79.0,62.2,48.0,50.0,44.5,38.1,84,57,28,29.98,29.88,13,2,13,0.00
2012-4-21,79.0,64.3,54.7,58.7,53.3,43.3,91,70,41,29.88,29.65,13,2,14,0.00
2012-4-22,60.9,49.8,41.2,58.1,47.9,40.3,97,93,83,29.82,29.63,20,2,20,0.93
2012-4-23,62.5,50.6,40.8,62.2,49.3,40.0,99,95,82,29.68,29.28,25,2,25,1.87
2012-4-24,57.6,50.1,44.6,44.5,36.2,29.3,89,61,36,29.68,29.37,13,2,13,0.00
2012-4-25,61.9,50.4,39.9,39.7,34.6,27.8,95,59,28,29.86,29.68,11,1,11,0.00
2012-4-26,66.3,49.4,34.1,48.3,36.9,29.5,89,65,29,29.94,29.53,9,0,9,0.00
2012-4-27,54.2,49.2,38.8,52.5,36.3,22.9,96,63,41,29.98,29.47,20,3,20,0.02
2012-4-28,58.7,46.3,34.3,23.8,19.8,10.0,60,38,16,30.10,29.97,17,2,17,0.00
2012-4-29,57.7,47.5,35.2,27.2,17.3,6.2,70,33,14,30.20,29.97,20,2,20,0.00
2012-4-30,64.7,48.8,31.7,36.0,24.4,14.7,68,40,20,30.32,30.19,4,0,8,0.00
2012-5-1,50.0,45.4,42.7,44.7,41.3,31.1,97,87,49,30.20,30.05,11,1,12,0.92
2012-5-2,51.7,47.0,43.5,47.0,44.6,42.7,98,91,81,30.23,30.13,7,0,7,0.03
2012-5-3,52.4,48.1,45.4,49.3,46.5,43.6,98,94,88,30.20,30.09,3,0,3,0.08
2012-5-4,56.2,51.9,48.3,54.7,50.9,47.5,98,96,94,30.09,29.91,6,0,6,0.03
2012-5-5,63.7,54.4,49.2,55.6,51.1,47.6,98,89,69,30.08,29.92,7,0,7,0.10
2012-5-6,60.1,51.8,42.0,50.9,44.2,38.5,98,77,52,30.14,30.06,11,0,11,0.00
2012-5-7,71.2,56.5,41.7,49.3,42.9,36.6,97,65,34,30.13,30.07,8,0,8,0.00
2012-5-8,54.9,52.3,47.2,53.6,46.7,38.4,96,82,56,30.08,29.86,6,0,8,0.26
2012-5-9,64.0,59.6,54.7,61.5,58.4,53.6,98,96,91,29.86,29.57,5,0,6,0.29
2012-5-10,65.7,57.2,48.9,58.5,50.5,41.3,98,80,53,29.67,29.35,11,1,11,0.99
2012-5-11,64.7,53.6,43.2,44.6,38.8,30.8,90,61,32,30.03,29.67,15,1,15,0.00
2012-5-12,79.3,61.3,39.4,49.1,39.0,26.0,95,53,18,30.13,30.01,11,1,11,0.00
2012-5-13,86.2,68.2,49.7,55.8,49.8,43.3,92,57,24,30.14,30.01,7,0,9,0.00
2012-5-14,73.3,60.7,55.9,59.3,54.4,50.6,95,81,60,30.16,30.07,5,0,7,0.01
2012-5-15,74.8,63.9,58.2,60.9,57.6,53.9,98,82,50,30.14,29.94,0,0,0,0.54
2012-5-16,73.5,65.2,61.5,67.0,62.9,60.9,98,92,75,29.94,29.78,0,0,0,0.11
2012-5-17,70.3,60.8,47.2,62.4,44.4,34.6,96,59,31,30.13,29.84,11,0,13,0.00
2012-5-18,73.7,57.2,40.6,47.7,43.0,37.6,97,64,33,30.25,30.13,6,0,6,0.00
2012-5-19,78.9,61.4,43.4,52.8,46.4,42.0,96,62,34,30.18,30.10,6,0,10,0.00
2012-5-20,81.8,64.8,48.3,57.3,48.3,43.1,95,61,28,30.29,30.15,5,0,5,0.00
2012-5-21,69.0,58.4,46.5,61.9,55.0,45.2,97,89,75,30.28,30.07,6,0,6,0.00
2012-5-22,62.7,60.0,57.5,62.1,59.3,56.8,99,98,97,30.07,29.82,8,0,8,0.87
2012-5-23,80.2,67.0,59.8,66.6,62.3,58.6,99,86,62,30.04,29.82,4,0,4,0.03
2012-5-24,79.5,67.3,59.2,66.5,61.6,57.8,98,83,60,30.23,30.04,10,0,10,0.00
2012-5-25,75.3,66.1,59.1,67.8,62.5,58.0,97,89,74,30.25,30.08,0,0,0,0.00
2012-5-26,83.9,74.1,63.4,72.2,67.5,60.4,96,81,58,30.09,30.00,0,0,0,0.00
2012-5-27,82.2,67.7,56.1,60.2,54.7,48.8,93,66,36,30.16,29.99,0,0,0,0.00
2012-5-28,80.0,67.0,60.5,62.8,58.6,55.2,92,76,50,30.01,29.92,9,0,9,0.00
2012-5-29,77.5,65.1,61.1,68.7,61.7,56.7,97,89,72,29.95,29.69,12,0,12,0.24
2012-5-30,76.3,68.7,62.2,68.0,63.9,60.1,99,86,61,29.73,29.67,2,0,2,0.01
2012-5-31,81.2,71.2,61.7,62.5,55.8,49.8,93,62,36,29.90,29.69,4,0,10,0.00
2012-6-1,73.5,62.6,55.3,52.0,47.5,39.0,84,59,35,30.07,29.90,11,0,11,0.00
2012-6-2,60.7,57.4,53.0,60.0,54.9,47.1,98,92,70,30.01,29.68,8,0,8,1.35
2012-6-3,60.7,57.7,52.2,59.9,54.9,49.6,99,91,77,29.69,29.64,18,1,18,0.08
2012-6-4,52.4,49.9,48.0,49.8,48.4,46.7,97,94,89,29.80,29.61,18,1,18,0.30
2012-6-5,57.6,51.5,48.2,51.8,48.9,47.1,98,91,79,29.94,29.77,6,0,6,0.02
2012-6-6,67.2,56.0,47.4,54.0,50.7,46.9,99,84,59,29.99,29.92,4,0,4,0.01
2012-6-7,74.4,58.9,50.0,59.8,53.8,48.8,98,85,46,29.97,29.90,11,0,11,0.09
2012-6-8,80.8,62.5,49.4,64.3,57.0,48.6,98,84,44,29.93,29.73,9,0,11,0.08
2012-6-9,80.0,67.3,54.2,60.8,54.7,46.9,96,68,34,29.92,29.76,9,0,9,0.01
2012-6-10,83.3,66.9,53.6,58.2,52.2,44.4,97,65,28,30.21,29.92,6,0,6,0.00
2012-6-11,76.7,65.3,52.1,61.3,55.2,50.5,97,72,47,30.28,30.19,5,0,5,0.00
2012-6-12,78.8,67.2,58.0,63.2,58.3,51.7,91,74,54,30.20,29.96,8,1,8,0.00
2012-6-13,66.5,63.5,61.6,65.2,62.4,60.5,98,96,92,30.06,29.91,2,0,5,0.83
2012-6-14,77.3,65.3,55.3,63.7,55.4,41.8,98,74,36,30.26,30.06,13,1,13,0.00
2012-6-15,75.0,62.8,50.4,57.4,52.4,49.2,97,71,48,30.32,30.24,10,0,10,0.00
2012-6-16,66.7,57.6,49.4,56.7,52.5,48.0,98,84,69,30.37,30.27,10,0,10,0.00
2012-6-17,71.3,58.0,45.6,55.0,50.3,44.5,98,78,48,30.30,30.12,6,0,6,0.00
2012-6-18,75.3,59.8,50.8,56.8,53.0,49.2,96,80,47,30.16,30.10,6,0,6,0.00
2012-6-19,75.3,65.9,54.2,65.6,59.8,53.0,97,82,66,30.15,30.00,11,0,11,0.00
2012-6-20,97.6,81.5,64.2,75.9,70.6,62.3,96,72,48,30.00,29.83,8,0,8,0.00
2012-6-21,96.0,84.7,71.6,74.3,71.0,68.0,93,66,41,29.84,29.70,8,0,8,0.00
2012-6-22,96.0,80.7,70.6,71.9,69.3,65.5,96,72,39,29.75,29.65,12,0,12,0.08
2012-6-23,88.3,71.8,61.6,70.6,65.4,60.7,97,83,41,29.90,29.74,12,0,12,0.35
2012-6-24,86.1,71.9,56.8,61.0,56.7,49.1,98,64,29,29.93,29.84,10,0,10,0.01
2012-6-25,76.0,67.4,61.4,65.3,61.8,58.6,97,83,65,29.84,29.62,5,0,5,0.65
2012-6-26,72.2,64.0,58.5,59.4,55.8,53.0,92,75,58,29.64,29.52,11,1,11,0.00
2012-6-27,77.0,66.3,57.9,58.0,54.9,51.6,86,68,46,29.71,29.53,12,1,12,0.00
2012-6-28,85.3,72.1,60.4,59.4,55.9,50.4,82,60,32,29.74,29.66,10,0,10,0.00
2012-6-29,90.1,75.6,62.7,72.4,62.3,45.4,94,67,25,29.69,29.50,9,0,9,0.12
2012-6-30,89.9,77.6,62.1,63.2,57.1,52.9,77,52,30,29.70,29.60,7,1,11,0.00
2012-7-1,92.9,79.1,68.2,67.1,62.4,55.6,83,60,30,29.82,29.69,10,1,10,0.00
2012-7-2,85.0,74.6,66.2,63.2,59.8,54.2,87,62,37,29.86,29.80,9,1,9,0.00
2012-7-3,85.5,73.9,62.3,60.0,56.3,50.0,85,57,31,29.90,29.82,9,0,9,0.00
2012-7-4,89.4,76.2,66.0,72.2,67.3,59.4,96,75,50,29.83,29.65,7,0,7,0.39
2012-7-5,84.5,75.9,67.7,70.6,64.9,61.5,92,70,49,29.84,29.64,12,1,12,0.00
2012-7-6,90.0,76.1,61.6,67.4,64.1,59.9,94,69,41,29.90,29.79,5,0,5,0.00
2012-7-7,82.2,77.0,69.1,72.6,67.2,63.8,84,72,63,29.80,29.70,8,0,8,0.00
2012-7-8,89.0,76.4,63.7,66.2,60.3,50.0,94,62,35,29.87,29.75,11,1,11,0.00
2012-7-9,83.8,71.7,58.5,55.1,50.9,44.0,83,51,27,29.97,29.86,10,1,10,0.00
2012-7-10,85.1,70.3,53.3,56.1,51.0,43.2,91,56,27,30.06,29.96,7,0,7,0.00
2012-7-11,88.4,73.6,59.5,63.9,57.8,51.9,90,61,33,30.17,30.06,6,0,6,0.00
2012-7-12,92.4,77.5,60.8,64.6,60.9,56.9,94,60,33,30.17,30.06,6,0,6,0.00
2012-7-13,92.8,78.4,64.8,69.6,62.9,57.9,79,60,42,30.17,30.09,7,0,7,0.00
2012-7-14,92.9,80.0,70.4,68.8,65.5,62.5,82,63,37,30.12,30.03,7,0,7,0.00
2012-7-15,93.5,80.3,67.8,72.5,67.1,62.7,87,67,37,30.07,29.85,6,0,6,0.00
2012-7-16,91.8,79.5,70.5,71.9,68.6,64.7,93,71,44,29.85,29.71,11,1,11,0.00
2012-7-17,96.5,83.0,68.1,70.9,67.7,64.4,94,64,37,29.76,29.62,13,1,13,0.00
2012-7-18,92.5,79.6,72.4,75.1,70.2,65.5,92,74,53,29.87,29.65,7,0,9,0.16
2012-7-19,85.1,73.7,65.7,65.6,57.8,54.1,82,59,37,30.01,29.87,8,0,8,0.00
2012-7-20,73.8,67.6,58.0,62.2,57.5,54.1,92,71,53,30.08,30.00,6,0,6,0.00
2012-7-21,83.2,67.4,51.0,59.7,52.7,49.1,96,64,33,30.10,30.05,5,0,5,0.00
2012-7-22,89.7,73.7,58.0,61.7,58.3,54.6,91,62,33,30.12,30.04,7,1,7,0.00
2012-7-23,87.2,74.8,64.4,70.5,65.9,59.6,93,75,53,30.08,29.73,8,1,8,0.04
2012-7-24,90.8,76.0,68.9,73.3,69.0,54.9,94,80,49,29.75,29.48,13,1,13,0.15
2012-7-25,82.8,72.2,62.0,56.2,53.3,50.4,74,53,34,29.80,29.67,15,1,16,0.00
2012-7-26,86.0,73.9,64.7,71.8,63.6,54.7,89,71,54,29.77,29.56,7,0,7,0.00
2012-7-27,75.8,70.1,66.9,72.0,66.8,64.6,95,89,83,29.89,29.57,5,0,6,0.04
2012-7-28,82.5,70.1,63.1,69.3,65.3,62.0,97,86,57,29.97,29.88,7,0,7,0.39
2012-7-29,72.5,66.9,62.2,66.2,63.1,59.3,97,88,72,30.06,29.91,7,0,7,0.02
2012-7-30,86.4,71.3,56.9,65.2,61.4,56.1,97,74,46,30.11,30.04,5,0,5,0.00
2012-7-31,79.1,69.1,59.6,65.6,62.9,58.2,96,82,58,30.10,29.88,3,0,5,0.38
2012-8-1,84.5,72.1,66.4,71.5,67.9,65.3,97,88,59,29.91,29.81,6,0,6,0.57
2012-8-2,91.7,77.7,67.0,73.3,69.2,65.9,98,77,49,29.87,29.79,7,0,7,0.01
2012-8-3,95.0,81.7,70.1,72.6,69.3,65.5,94,69,40,30.06,29.87,10,0,10,0.00
2012-8-4,94.5,80.2,71.0,74.7,71.2,68.1,96,76,49,30.20,30.06,6,0,6,0.00
2012-8-5,91.8,78.6,71.3,75.4,72.2,68.6,97,83,53,30.20,29.90,14,1,14,0.50
2012-8-6,85.0,76.2,63.8,73.8,64.4,56.9,97,70,42,29.96,29.89,10,0,10,0.00
2012-8-7,85.7,72.0,58.4,65.1,61.1,57.3,96,71,40,30.00,29.92,6,0,6,0.00
2012-8-8,90.3,76.2,62.5,69.0,64.0,60.0,95,69,37,29.97,29.91,5,0,5,0.00
2012-8-9,92.5,78.6,67.9,71.5,68.5,64.2,95,73,42,29.94,29.85,5,0,5,0.00
2012-8-10,85.8,75.4,69.9,73.9,71.0,68.3,97,87,62,29.91,29.77,4,0,5,0.78
2012-8-11,82.4,73.5,66.7,74.1,70.1,65.8,98,90,75,29.90,29.79,4,0,4,0.01
2012-8-12,86.0,76.8,71.1,73.8,71.4,68.4,97,84,65,29.91,29.82,3,0,6,0.00
2012-8-13,86.1,74.9,65.3,69.4,65.4,62.2,96,75,47,29.92,29.87,7,0,7,0.00
2012-8-14,84.8,73.3,63.1,67.1,64.0,61.2,95,74,50,29.93,29.88,6,0,6,0.00
2012-8-15,85.3,73.5,66.2,70.1,67.6,64.6,96,83,55,29.91,29.81,5,0,5,1.27
2012-8-16,83.8,72.4,64.8,68.7,64.5,59.3,97,79,46,29.84,29.77,8,0,8,0.38
2012-8-17,87.3,73.9,60.1,69.5,64.7,59.0,97,76,50,29.82,29.73,8,0,8,0.15
2012-8-18,72.8,67.3,60.2,67.8,63.9,59.1,97,89,74,29.88,29.79,3,0,3,0.08
2012-8-19,76.5,65.8,54.7,61.3,56.7,51.8,97,75,48,29.95,29.87,6,0,6,0.00
2012-8-20,80.2,67.9,55.9,63.4,59.3,54.8,97,76,45,29.91,29.82,4,0,4,0.00
2012-8-21,83.7,71.2,62.0,63.8,59.4,52.0,94,70,37,30.06,29.88,7,0,7,0.00
2012-8-22,85.4,70.4,55.8,61.2,57.6,53.9,96,68,35,30.13,30.06,5,0,5,0.00
2012-8-23,87.5,73.7,60.8,66.3,62.7,59.2,96,71,42,30.12,30.05,7,0,7,0.00
2012-8-24,84.5,72.5,62.2,66.5,63.6,60.8,96,76,48,30.19,30.09,4,0,4,0.00
2012-8-25,82.5,71.6,62.9,67.9,62.2,54.5,97,75,44,30.31,30.19,4,0,5,0.00
2012-8-26,83.9,69.4,57.0,64.9,59.2,54.5,96,73,39,30.33,30.21,4,0,4,0.00
2012-8-27,87.3,72.7,56.9,69.4,63.2,55.5,97,74,48,30.21,29.90,7,1,7,0.00
2012-8-28,83.8,75.3,68.4,71.7,66.8,57.8,97,76,51,29.90,29.68,8,0,8,0.18
2012-8-29,75.8,65.7,55.3,57.8,50.9,44.6,87,62,36,29.96,29.86,11,0,11,0.00
2012-8-30,82.8,67.9,52.3,57.1,53.3,50.1,93,63,35,30.02,29.93,9,1,9,0.00
2012-8-31,90.6,76.2,61.8,60.6,56.8,53.1,76,53,32,29.94,29.77,5,0,10,0.00
2012-9-1,78.2,71.0,58.9,65.8,60.0,53.7,91,69,50,30.10,29.81,8,0,8,0.00
2012-9-2,78.8,66.4,56.9,60.4,57.2,50.5,94,75,38,30.14,30.03,6,0,6,0.00
2012-9-3,78.4,66.5,56.6,61.7,59.1,55.0,97,79,50,30.22,30.12,7,0,7,0.00
2012-9-4,72.2,67.1,61.9,71.6,64.6,56.8,98,92,77,30.14,29.85,3,0,3,0.26
2012-9-5,81.4,74.1,67.2,74.0,69.7,64.0,97,87,64,29.85,29.67,8,1,8,0.46
2012-9-6,80.7,71.7,63.5,68.3,65.8,62.3,98,83,63,29.89,29.81,5,0,5,0.00
2012-9-7,86.8,73.7,64.9,71.9,67.2,62.9,98,83,48,29.91,29.83,4,0,4,0.04
2012-9-8,83.2,74.8,63.2,72.5,69.1,60.8,97,84,61,29.88,29.59,15,1,15,0.13
2012-9-9,73.5,63.8,54.6,61.0,57.1,51.4,95,80,47,29.83,29.68,6,0,6,0.01
2012-9-10,66.5,59.4,52.3,53.9,48.6,42.7,97,69,48,30.03,29.83,15,1,15,0.00
2012-9-11,74.3,58.9,43.9,51.2,45.6,41.3,93,65,31,30.25,30.03,7,0,7,0.00
2012-9-12,79.8,62.2,46.3,57.2,50.7,44.7,95,70,32,30.34,30.25,5,0,5,0.00
2012-9-13,85.4,68.9,56.5,63.0,59.3,55.3,96,74,42,30.33,30.23,5,0,5,0.00
2012-9-14,83.9,69.8,58.1,64.6,61.0,56.9,97,76,43,30.24,30.05,10,0,10,0.00
2012-9-15,72.2,63.8,51.0,61.0,53.5,44.2,96,72,42,30.05,29.95,11,1,11,0.02
2012-9-16,71.8,56.9,44.7,50.1,44.6,37.8,96,68,33,30.07,29.97,10,0,10,0.00
2012-9-17,77.5,58.9,42.5,56.0,48.4,41.0,96,72,38,30.09,30.00,3,0,5,0.00
2012-9-18,74.6,66.0,53.2,68.5,60.9,51.5,96,84,72,30.04,29.65,20,1,20,0.02
2012-9-19,73.8,63.7,48.4,68.9,52.5,39.8,96,70,35,30.18,29.66,13,1,13,1.09
2012-9-20,64.5,52.4,41.8,50.0,45.2,40.2,95,78,51,30.27,30.15,7,0,7,0.00
2012-9-21,66.2,52.5,43.7,54.7,48.7,42.6,97,88,63,30.17,30.03,5,0,5,0.00
2012-9-22,73.6,60.6,53.9,62.5,56.9,52.4,97,88,67,30.03,29.80,5,0,5,0.02
2012-9-23,71.8,61.8,45.9,63.2,51.3,41.0,97,72,36,30.08,29.77,12,1,12,0.06
2012-9-24,65.9,51.9,40.4,45.6,42.1,38.7,96,73,38,30.12,30.04,8,0,8,0.00
2012-9-25,73.8,57.1,41.1,52.1,45.7,39.5,95,69,39,30.15,30.08,11,1,11,0.00
2012-9-26,72.2,64.9,56.8,62.8,59.2,52.0,93,82,71,30.12,29.97,6,1,10,0.00
2012-9-27,69.1,60.1,46.9,61.2,51.1,42.6,98,76,41,30.24,29.97,10,1,10,0.00
2012-9-28,55.3,52.1,46.4,54.4,50.9,45.0,97,96,92,30.24,29.97,6,0,6,0.76
2012-9-29,55.9,53.9,50.8,54.3,52.5,49.9,97,95,91,29.97,29.87,9,1,9,0.05
2012-9-30,58.3,54.2,50.4,56.1,53.1,49.6,98,96,91,29.90,29.69,1,0,1,0.10
2012-10-1,64.5,56.6,48.1,54.5,51.2,47.0,98,83,68,29.92,29.68,9,1,9,0.00
2012-10-2,70.2,59.8,52.7,60.3,56.1,50.9,97,88,62,30.04,29.91,4,0,4,0.12
2012-10-3,63.0,60.7,59.1,62.4,59.9,58.5,98,97,96,30.15,30.02,3,0,3,0.12
2012-10-4,60.9,59.6,58.2,60.2,58.9,57.6,99,98,96,30.16,30.02,3,0,3,0.05
2012-10-5,77.3,64.2,57.1,62.0,59.1,56.8,99,86,51,30.02,29.88,5,0,5,0.00
2012-10-6,77.3,63.9,50.7,63.3,56.8,45.2,98,79,56,29.91,29.67,11,1,11,0.00
2012-10-7,57.2,49.8,42.0,47.6,43.2,38.4,94,79,53,30.06,29.91,6,0,6,0.15
2012-10-8,55.6,47.5,38.4,46.4,43.2,37.5,98,86,62,30.31,30.03,4,0,6,0.03
2012-10-9,57.2,50.8,45.8,50.1,46.9,44.3,95,87,70,30.30,30.13,8,0,8,0.00
2012-10-10,60.0,53.6,46.6,59.4,52.4,44.4,98,95,86,30.13,29.70,5,0,5,0.21
2012-10-11,57.8,48.6,38.9,50.7,38.6,33.2,94,71,42,30.11,29.77,12,1,12,0.00
2012-10-12,52.8,44.4,35.1,43.1,34.2,23.5,92,69,40,30.35,29.98,16,1,16,0.04
2012-10-13,53.7,40.2,27.2,32.8,27.0,22.9,90,62,31,30.46,30.30,8,0,8,0.00
2012-10-14,65.1,52.6,42.6,57.0,48.1,32.5,96,85,62,30.32,29.91,7,0,7,0.56
2012-10-15,75.7,65.6,57.6,62.5,59.3,54.4,93,81,62,29.91,29.58,13,1,13,0.00
2012-10-16,62.3,51.5,36.8,60.4,42.8,34.9,96,74,49,29.88,29.54,18,1,18,0.29
2012-10-17,63.4,44.5,31.8,41.5,36.3,30.5,97,76,36,30.00,29.87,7,0,7,0.00
2012-10-18,64.1,49.0,35.1,50.4,43.7,34.1,98,84,50,30.12,29.99,8,0,8,0.00
2012-10-19,65.3,57.2,45.0,65.0,55.4,43.9,99,94,76,30.08,29.72,11,1,11,0.17
2012-10-20,75.3,65.7,56.2,66.0,58.7,45.4,99,81,42,29.75,29.58,8,0,8,1.57
2012-10-21,63.6,53.5,42.8,46.3,42.6,39.3,94,68,42,29.86,29.72,14,1,14,0.00
2012-10-22,65.9,53.9,44.5,45.1,42.3,39.9,89,67,41,29.99,29.85,14,1,14,0.00
2012-10-23,64.3,51.7,41.5,47.1,43.3,38.9,93,75,49,30.10,29.98,11,0,11,0.00
2012-10-24,55.7,48.4,40.5,44.4,38.9,34.0,94,70,53,30.20,30.10,7,0,7,0.00
2012-10-25,65.9,49.8,38.6,46.6,39.5,31.1,97,73,30,30.30,30.20,5,0,5,0.00
2012-10-26,69.7,52.2,40.8,55.6,47.4,39.7,97,85,61,30.25,30.10,6,0,6,0.00
2012-10-27,66.4,53.2,43.6,55.8,49.1,42.5,98,87,68,30.12,29.99,5,0,5,0.00
2012-10-28,55.1,51.4,48.6,51.4,49.2,47.5,96,92,84,30.01,29.77,14,2,14,0.10
2012-10-29,61.7,56.2,49.5,60.5,55.0,48.6,97,96,94,29.77,29.20,34,7,38,1.54
2012-10-30,67.2,60.0,51.1,60.7,57.7,50.3,97,92,76,29.58,29.30,12,1,15,0.70
2012-10-31,56.2,52.3,47.4,55.6,48.9,41.3,99,88,73,29.55,29.44,6,1,8,0.01
2012-11-1,57.1,49.2,42.1,42.2,40.9,38.5,90,74,55,29.55,29.48,9,1,9,0.00
2012-11-2,51.8,46.3,41.1,41.9,39.7,36.2,93,78,59,29.59,29.51,9,1,9,0.14
2012-11-3,52.1,44.4,39.8,37.5,35.0,31.7,89,70,53,29.79,29.59,13,1,13,0.00
2012-11-4,50.9,41.5,33.7,36.4,32.5,28.6,89,71,55,29.94,29.77,14,1,14,0.00
2012-11-5,44.1,37.2,28.6,29.5,23.4,17.9,73,58,42,30.12,29.93,16,2,16,0.00
2012-11-6,42.7,30.4,22.0,21.8,18.5,14.4,86,64,33,30.23,30.12,12,0,12,0.00
2012-11-7,35.5,32.4,24.2,28.4,24.4,18.9,93,73,53,30.19,29.77,27,4,27,0.00
2012-11-8,38.3,35.4,30.2,36.3,33.0,28.3,95,91,81,29.77,29.62,25,6,25,0.25
2012-11-9,52.6,42.6,35.7,33.0,27.8,21.3,81,58,31,30.09,29.75,18,3,18,0.00
2012-11-10,53.4,40.4,31.3,35.3,29.3,25.5,90,67,35,30.45,30.08,10,1,10,0.00
2012-11-11,64.9,49.5,30.8,46.4,40.6,28.2,91,73,47,30.49,30.39,13,1,13,0.00
2012-11-12,69.0,57.8,48.1,58.6,51.0,44.5,96,79,54,30.45,30.21,12,2,12,0.01
2012-11-13,65.3,50.2,38.1,60.5,46.4,30.7,94,87,74,30.42,30.09,14,2,14,0.36
2012-11-14,45.8,37.4,30.5,31.2,26.2,22.7,84,65,42,30.54,30.41,15,2,15,0.00
2012-11-15,43.7,34.7,30.1,30.9,27.5,24.5,93,76,51,30.47,30.30,11,1,11,0.00
2012-11-16,45.9,35.8,28.8,30.9,28.8,25.8,95,77,54,30.43,30.28,7,0,7,0.00
2012-11-17,48.7,35.9,26.5,31.9,28.1,24.0,94,74,49,30.65,30.42,7,0,7,0.00
2012-11-18,46.6,32.7,23.5,34.0,27.1,21.7,95,81,53,30.72,30.62,12,1,12,0.00
2012-11-19,47.2,33.5,24.6,35.7,28.4,22.6,96,82,60,30.62,30.27,7,0,7,0.00
2012-11-20,47.6,34.3,24.0,36.7,29.3,22.6,96,83,60,30.27,30.13,7,0,7,0.01
2012-11-21,50.2,39.3,31.6,40.5,33.7,27.3,95,81,63,30.26,30.15,10,1,10,0.00
2012-11-22,55.2,41.6,31.8,41.0,36.4,30.4,96,83,57,30.27,30.12,5,0,5,0.00
2012-11-23,55.2,42.5,30.2,45.2,38.6,29.5,98,87,65,30.12,29.62,8,1,8,0.00
2012-11-24,47.4,40.9,31.9,44.1,26.6,15.3,94,58,39,29.63,29.51,19,3,19,0.00
2012-11-25,37.6,33.0,29.2,23.2,18.0,9.6,70,54,33,29.85,29.63,15,3,15,0.00
2012-11-26,44.7,35.3,26.2,26.3,22.8,19.7,83,62,39,30.23,29.84,16,2,16,0.00
2012-11-27,35.5,31.1,25.0,32.6,28.6,21.3,96,90,79,30.32,30.22,5,0,5,0.09
2012-11-28,35.9,31.0,24.7,31.3,26.1,22.2,96,82,64,30.22,30.10,10,1,10,0.00
2012-11-29,42.2,33.7,24.0,26.4,23.8,21.8,92,68,48,30.25,30.13,11,2,11,0.01
2012-11-30,37.5,30.6,27.1,27.3,12.9,3.6,74,49,33,30.55,30.17,10,2,13,0.00
2012-12-1,28.9,27.3,26.0,25.8,19.8,7.6,92,75,40,30.64,30.50,8,1,8,0.00
2012-12-2,50.4,37.9,27.6,46.1,35.4,25.3,96,91,80,30.50,30.02,12,1,12,0.03
2012-12-3,56.6,47.5,32.3,46.4,41.7,31.0,95,81,59,30.29,30.00,19,2,19,0.01
2012-12-4,57.7,43.8,30.0,54.8,42.1,28.8,97,94,90,30.31,29.94,9,1,11,0.00
2012-12-5,58.4,48.9,31.4,54.9,38.1,15.6,90,67,48,30.12,29.81,19,4,19,0.00
2012-12-6,38.8,30.0,20.6,18.9,17.5,15.6,88,61,41,30.31,30.12,16,2,16,0.00
2012-12-7,43.5,33.6,20.5,39.5,29.3,17.4,95,85,70,30.29,30.02,7,0,7,0.03
2012-12-8,43.1,40.9,40.1,42.4,40.0,39.0,98,97,95,30.03,29.85,8,0,8,0.31
2012-12-9,43.7,40.2,37.0,42.6,36.0,31.1,97,86,62,30.29,29.93,9,1,9,0.13
2012-12-10,50.1,46.3,37.3,49.6,45.6,36.2,98,97,95,30.16,29.47,11,0,11,0.40
2012-12-11,52.4,41.9,31.7,51.9,35.4,23.0,99,78,56,30.13,29.50,14,1,14,0.03
2012-12-12,37.2,29.6,25.3,24.7,23.0,21.5,91,77,56,30.42,30.13,4,0,5,0.00
2012-12-13,42.6,29.5,21.5,28.2,23.9,20.0,95,81,51,30.47,30.27,5,0,5,0.00
2012-12-14,48.2,34.3,24.8,27.8,24.0,19.5,90,69,32,30.27,30.03,10,1,10,0.00
2012-12-15,40.0,32.0,25.8,26.8,22.8,17.9,91,70,42,30.33,30.14,14,1,14,0.00
2012-12-16,29.1,27.0,26.0,27.9,22.4,18.0,95,83,71,30.33,30.08,7,1,7,0.00
2012-12-17,33.2,29.7,26.0,32.4,28.6,24.5,97,96,94,30.09,29.80,7,1,7,0.00
2012-12-18,47.2,40.7,33.2,46.7,40.0,32.4,98,97,94,29.81,29.39,17,1,17,1.17
2012-12-19,44.4,40.1,35.8,38.8,33.3,29.5,95,77,64,30.02,29.42,23,4,23,0.00
2012-12-20,40.4,34.5,25.2,33.4,29.2,24.0,96,82,65,30.21,30.02,8,1,8,0.01
2012-12-21,52.8,43.1,34.3,50.3,39.9,32.9,97,89,75,30.03,29.06,26,4,26,0.61
2012-12-22,37.5,33.1,27.8,32.8,23.4,14.2,86,68,51,29.62,29.21,18,3,18,0.00
2012-12-23,38.2,30.9,24.8,24.2,19.2,14.2,79,62,47,29.85,29.62,15,1,15,0.00
2012-12-24,39.2,31.2,25.9,22.7,20.1,17.2,81,64,42,30.05,29.84,11,1,11,0.00
2012-12-25,32.4,29.1,25.5,26.8,22.7,16.4,88,77,65,30.22,29.98,9,1,9,0.00
2012-12-26,34.7,28.0,19.2,31.6,20.2,11.7,95,73,50,30.31,29.93,17,2,17,0.01
2012-12-27,42.8,35.1,30.0,41.5,33.6,27.9,96,94,88,29.93,29.26,29,5,29,2.15
2012-12-28,35.4,30.2,26.0,28.0,22.6,19.1,88,74,62,30.00,29.60,20,3,20,0.00
2012-12-29,30.6,27.7,23.7,29.2,24.6,21.5,96,88,75,30.00,29.40,12,1,12,0.00
2012-12-30,29.7,25.8,19.9,26.6,17.0,7.6,95,70,49,29.95,29.42,25,4,25,0.00
2012-12-31,33.3,26.5,17.8,24.5,17.8,8.2,77,69,59,30.01,29.75,13,2,19,0.00
2013-1-1,36.7,30.2,16.8,25.8,16.6,3.8,73,57,43,29.92,29.69,21,3,21,0.00